Česky Dansk Deutsch English Español Suomi Français Magyar Italiano Nederlands norsk Polski Português svenska Türkçe

 

Het Weer

Asswan (Egypt)

13:00, 21 augustus 2016 (GMT)

NWNNE
WE
SWSSE
Home            
Asswan Luxor Wadi Halfa Hurguada Asyut Wejh Sharm El Sheikhintl El Tor Yenbo Dongola Tabuk Taba Eilat Aqaba Airport Port Sudan Port Sudan International Cairo Airport Ovda Jeddah King Abdul Aziz International Airport Madinah Atbara Jeddah Ma'An

Om een weerknop op uw website of weblog te plaatsen, copieer onderstaande code en plak die in uw pagina. In het eerste vakje staat HTML-code, in het tweede vakje UBB-code.


Add to Google

Details

Wind speed:4 bf, 15 kn, 7.7 m/s, 17.3 miles/h, 27.8 km/h
Wind direction:WNW, 290°
Visibility:Greater than 10000 m, 10 km, 32800 ft, 6.2 miles
Clouds:CAVOC
Temperature:42°C, 108°F
Gefühlte Temperatur:39°C, 102°F
Dew-point:2°C, 36°F
Atmospheric pressure:1008 hPa, 756.1 mmHg, 29.77 inHg, 0.995 atm
Relative humidity:8.6 %
METAR:HESN 211300Z 29015KT CAVOK 42/02 Q1008 NOSIG

Snelkoppelingen

Actuele weersinformatie van de hele wereld. Voeg locaties toe met het plus (+) symbool. Deze snelkoppelingen kunnen worden toegevoegd aan Google.

Lid van de Technetium groep

website free tracking
StatCounter NetStat W3C Validator

17-12-2017 04:47:36
astro.technetium.be money.technetium.be phote.technetium.be tafeltennistafel.technetium.be www.ligfiets.net